sensor_id;sensor_type;location;lat;lon;timestamp;temperature;humidity
68943;DHT22;60852;52.190;4.422;2022-12-26T00:01:09;10.65;88.86
68943;DHT22;60852;52.190;4.422;2022-12-26T00:03:35;10.58;89.09
68943;DHT22;60852;52.190;4.422;2022-12-26T00:06:00;10.67;89.11
68943;DHT22;60852;52.190;4.422;2022-12-26T00:08:26;10.71;89.03
68943;DHT22;60852;52.190;4.422;2022-12-26T00:10:51;10.76;88.92
68943;DHT22;60852;52.190;4.422;2022-12-26T00:13:18;10.75;88.87
68943;DHT22;60852;52.190;4.422;2022-12-26T00:15:43;10.64;89.25
68943;DHT22;60852;52.190;4.422;2022-12-26T00:18:09;10.64;89.41
68943;DHT22;60852;52.190;4.422;2022-12-26T00:20:34;10.64;89.39
68943;DHT22;60852;52.190;4.422;2022-12-26T00:23:00;10.62;89.35
68943;DHT22;60852;52.190;4.422;2022-12-26T00:25:25;10.65;89.32
68943;DHT22;60852;52.190;4.422;2022-12-26T00:27:51;10.61;89.40
68943;DHT22;60852;52.190;4.422;2022-12-26T00:30:17;10.62;89.46
68943;DHT22;60852;52.190;4.422;2022-12-26T00:32:42;10.65;89.39
68943;DHT22;60852;52.190;4.422;2022-12-26T00:35:08;10.69;89.20
68943;DHT22;60852;52.190;4.422;2022-12-26T00:37:33;10.64;89.28
68943;DHT22;60852;52.190;4.422;2022-12-26T00:39:59;10.68;89.24
68943;DHT22;60852;52.190;4.422;2022-12-26T00:42:24;10.71;89.06
68943;DHT22;60852;52.190;4.422;2022-12-26T00:44:49;10.69;88.87
68943;DHT22;60852;52.190;4.422;2022-12-26T00:47:15;10.69;88.94
68943;DHT22;60852;52.190;4.422;2022-12-26T00:49:40;10.61;89.04
68943;DHT22;60852;52.190;4.422;2022-12-26T00:52:06;10.55;89.29
68943;DHT22;60852;52.190;4.422;2022-12-26T00:54:31;10.55;89.22
68943;DHT22;60852;52.190;4.422;2022-12-26T00:56:57;10.51;89.37
68943;DHT22;60852;52.190;4.422;2022-12-26T00:59:22;10.47;89.40
68943;DHT22;60852;52.190;4.422;2022-12-26T01:01:49;10.47;89.56
68943;DHT22;60852;52.190;4.422;2022-12-26T01:04:14;10.50;89.44
68943;DHT22;60852;52.190;4.422;2022-12-26T01:06:40;10.51;89.58
68943;DHT22;60852;52.190;4.422;2022-12-26T01:09:05;10.54;89.45
68943;DHT22;60852;52.190;4.422;2022-12-26T01:11:31;10.55;89.21
68943;DHT22;60852;52.190;4.422;2022-12-26T01:14:09;10.55;89.25
68943;DHT22;60852;52.190;4.422;2022-12-26T01:16:36;10.50;89.25
68943;DHT22;60852;52.190;4.422;2022-12-26T01:19:02;10.44;89.33
68943;DHT22;60852;52.190;4.422;2022-12-26T01:21:27;10.44;89.42
68943;DHT22;60852;52.190;4.422;2022-12-26T01:23:53;10.44;89.59
68943;DHT22;60852;52.190;4.422;2022-12-26T01:26:19;10.50;89.47
68943;DHT22;60852;52.190;4.422;2022-12-26T01:28:44;10.50;89.06
68943;DHT22;60852;52.190;4.422;2022-12-26T01:31:10;10.50;89.35
68943;DHT22;60852;52.190;4.422;2022-12-26T01:33:35;10.44;89.31
68943;DHT22;60852;52.190;4.422;2022-12-26T01:36:01;10.50;89.20
68943;DHT22;60852;52.190;4.422;2022-12-26T01:38:27;10.54;89.12
68943;DHT22;60852;52.190;4.422;2022-12-26T01:40:52;10.57;88.77
68943;DHT22;60852;52.190;4.422;2022-12-26T01:46:20;10.55;88.64
68943;DHT22;60852;52.190;4.422;2022-12-26T01:48:47;10.58;88.45
68943;DHT22;60852;52.190;4.422;2022-12-26T01:51:14;10.55;88.37
68943;DHT22;60852;52.190;4.422;2022-12-26T01:53:53;10.50;88.49
68943;DHT22;60852;52.190;4.422;2022-12-26T01:56:24;10.47;88.40
68943;DHT22;60852;52.190;4.422;2022-12-26T01:59:00;10.40;88.44
68943;DHT22;60852;52.190;4.422;2022-12-26T02:01:31;10.37;88.49
68943;DHT22;60852;52.190;4.422;2022-12-26T02:04:00;10.34;88.49
68943;DHT22;60852;52.190;4.422;2022-12-26T02:06:46;10.23;88.85
68943;DHT22;60852;52.190;4.422;2022-12-26T02:09:12;10.18;88.87
68943;DHT22;60852;52.190;4.422;2022-12-26T02:11:42;10.24;88.86
68943;DHT22;60852;52.190;4.422;2022-12-26T02:14:09;10.21;88.74
68943;DHT22;60852;52.190;4.422;2022-12-26T02:16:37;10.18;88.76
68943;DHT22;60852;52.190;4.422;2022-12-26T02:19:08;10.17;88.70
68943;DHT22;60852;52.190;4.422;2022-12-26T02:27:46;10.23;88.45
68943;DHT22;60852;52.190;4.422;2022-12-26T02:30:32;10.14;88.55
68943;DHT22;60852;52.190;4.422;2022-12-26T02:33:28;10.10;88.65
68943;DHT22;60852;52.190;4.422;2022-12-26T02:36:17;10.13;88.86
68943;DHT22;60852;52.190;4.422;2022-12-26T02:53:14;10.06;89.47
68943;DHT22;60852;52.190;4.422;2022-12-26T02:56:17;10.12;89.48
68943;DHT22;60852;52.190;4.422;2022-12-26T02:59:12;10.21;89.44
68943;DHT22;60852;52.190;4.422;2022-12-26T03:02:02;10.25;89.03
68943;DHT22;60852;52.190;4.422;2022-12-26T03:04:51;10.29;88.80
68943;DHT22;60852;52.190;4.422;2022-12-26T03:07:39;10.30;88.49
68943;DHT22;60852;52.190;4.422;2022-12-26T03:10:31;10.24;88.80
68943;DHT22;60852;52.190;4.422;2022-12-26T03:13:26;10.30;88.61
68943;DHT22;60852;52.190;4.422;2022-12-26T03:16:02;10.33;88.37
68943;DHT22;60852;52.190;4.422;2022-12-26T03:18:53;10.34;88.09
68943;DHT22;60852;52.190;4.422;2022-12-26T03:21:25;10.31;88.00
68943;DHT22;60852;52.190;4.422;2022-12-26T03:23:54;10.23;88.32
68943;DHT22;60852;52.190;4.422;2022-12-26T03:26:27;10.24;88.15
68943;DHT22;60852;52.190;4.422;2022-12-26T03:29:18;10.21;88.09
68943;DHT22;60852;52.190;4.422;2022-12-26T03:32:07;10.17;88.20
68943;DHT22;60852;52.190;4.422;2022-12-26T03:34:35;10.16;88.10
68943;DHT22;60852;52.190;4.422;2022-12-26T03:40:02;10.21;87.74
68943;DHT22;60852;52.190;4.422;2022-12-26T03:43:22;10.14;87.84
68943;DHT22;60852;52.190;4.422;2022-12-26T03:46:23;10.10;88.02
68943;DHT22;60852;52.190;4.422;2022-12-26T03:49:19;10.06;88.07
68943;DHT22;60852;52.190;4.422;2022-12-26T03:55:25;10.10;87.72
68943;DHT22;60852;52.190;4.422;2022-12-26T03:58:31;10.12;87.71
68943;DHT22;60852;52.190;4.422;2022-12-26T04:01:20;10.10;87.52
68943;DHT22;60852;52.190;4.422;2022-12-26T04:04:11;10.03;87.73
68943;DHT22;60852;52.190;4.422;2022-12-26T04:09:58;10.10;87.61
68943;DHT22;60852;52.190;4.422;2022-12-26T04:12:46;10.13;87.29
68943;DHT22;60852;52.190;4.422;2022-12-26T04:15:55;10.06;87.34
68943;DHT22;60852;52.190;4.422;2022-12-26T04:22:08;10.09;87.22
68943;DHT22;60852;52.190;4.422;2022-12-26T04:25:02;10.07;87.31
68943;DHT22;60852;52.190;4.422;2022-12-26T04:27:48;10.10;87.29
68943;DHT22;60852;52.190;4.422;2022-12-26T04:30:35;10.10;87.11
68943;DHT22;60852;52.190;4.422;2022-12-26T04:33:34;10.13;86.98
68943;DHT22;60852;52.190;4.422;2022-12-26T04:36:37;10.10;86.95
68943;DHT22;60852;52.190;4.422;2022-12-26T04:39:30;10.17;86.79
68943;DHT22;60852;52.190;4.422;2022-12-26T04:42:18;10.23;87.02
68943;DHT22;60852;52.190;4.422;2022-12-26T04:45:05;10.24;86.72
68943;DHT22;60852;52.190;4.422;2022-12-26T04:47:32;10.23;86.29
68943;DHT22;60852;52.190;4.422;2022-12-26T04:49:57;10.06;86.84
68943;DHT22;60852;52.190;4.422;2022-12-26T04:52:39;10.12;86.90
68943;DHT22;60852;52.190;4.422;2022-12-26T04:55:31;10.14;86.68
68943;DHT22;60852;52.190;4.422;2022-12-26T04:57:57;10.09;86.47
68943;DHT22;60852;52.190;4.422;2022-12-26T05:00:25;10.02;86.77
68943;DHT22;60852;52.190;4.422;2022-12-26T05:02:53;10.09;86.75
68943;DHT22;60852;52.190;4.422;2022-12-26T05:05:44;10.04;86.56
68943;DHT22;60852;52.190;4.422;2022-12-26T05:08:37;10.04;86.61
68943;DHT22;60852;52.190;4.422;2022-12-26T05:11:22;10.03;86.59
68943;DHT22;60852;52.190;4.422;2022-12-26T05:13:47;10.07;86.45
68943;DHT22;60852;52.190;4.422;2022-12-26T05:16:13;10.06;86.46
68943;DHT22;60852;52.190;4.422;2022-12-26T05:18:57;10.00;86.62
68943;DHT22;60852;52.190;4.422;2022-12-26T05:21:41;10.00;86.69
68943;DHT22;60852;52.190;4.422;2022-12-26T05:24:32;10.03;86.50
68943;DHT22;60852;52.190;4.422;2022-12-26T05:27:18;10.02;86.42
68943;DHT22;60852;52.190;4.422;2022-12-26T05:30:05;10.06;86.36
68943;DHT22;60852;52.190;4.422;2022-12-26T05:32:30;10.06;86.22
68943;DHT22;60852;52.190;4.422;2022-12-26T05:35:15;10.09;86.13
68943;DHT22;60852;52.190;4.422;2022-12-26T05:37:41;10.09;86.02
68943;DHT22;60852;52.190;4.422;2022-12-26T05:40:07;10.12;86.10
68943;DHT22;60852;52.190;4.422;2022-12-26T05:42:32;10.07;86.25
68943;DHT22;60852;52.190;4.422;2022-12-26T05:44:58;10.03;86.35
68943;DHT22;60852;52.190;4.422;2022-12-26T05:47:23;10.04;86.45
68943;DHT22;60852;52.190;4.422;2022-12-26T05:49:49;10.06;86.30
68943;DHT22;60852;52.190;4.422;2022-12-26T05:52:14;10.14;86.16
68943;DHT22;60852;52.190;4.422;2022-12-26T05:54:40;10.14;86.18
68943;DHT22;60852;52.190;4.422;2022-12-26T05:57:05;10.09;86.04
68943;DHT22;60852;52.190;4.422;2022-12-26T05:59:30;10.12;86.18
68943;DHT22;60852;52.190;4.422;2022-12-26T06:01:56;10.16;86.14
68943;DHT22;60852;52.190;4.422;2022-12-26T06:04:21;10.21;85.83
68943;DHT22;60852;52.190;4.422;2022-12-26T06:06:47;10.25;85.97
68943;DHT22;60852;52.190;4.422;2022-12-26T06:09:12;10.31;85.89
68943;DHT22;60852;52.190;4.422;2022-12-26T06:11:38;10.24;85.93
68943;DHT22;60852;52.190;4.422;2022-12-26T06:14:03;10.24;85.96
68943;DHT22;60852;52.190;4.422;2022-12-26T06:16:29;10.25;86.01
68943;DHT22;60852;52.190;4.422;2022-12-26T06:18:55;10.29;85.78
68943;DHT22;60852;52.190;4.422;2022-12-26T06:21:21;10.34;85.84
68943;DHT22;60852;52.190;4.422;2022-12-26T06:23:48;10.34;85.71
68943;DHT22;60852;52.190;4.422;2022-12-26T06:26:15;10.38;85.78
68943;DHT22;60852;52.190;4.422;2022-12-26T06:28:41;10.37;85.68
68943;DHT22;60852;52.190;4.422;2022-12-26T06:31:13;10.31;85.73
68943;DHT22;60852;52.190;4.422;2022-12-26T06:33:39;10.33;85.64
68943;DHT22;60852;52.190;4.422;2022-12-26T06:36:07;10.42;85.60
68943;DHT22;60852;52.190;4.422;2022-12-26T06:38:34;10.40;85.55
68943;DHT22;60852;52.190;4.422;2022-12-26T06:41:00;10.42;85.45
68943;DHT22;60852;52.190;4.422;2022-12-26T06:43:25;10.40;85.43
68943;DHT22;60852;52.190;4.422;2022-12-26T06:45:56;10.40;85.65
68943;DHT22;60852;52.190;4.422;2022-12-26T06:48:22;10.36;85.52
68943;DHT22;60852;52.190;4.422;2022-12-26T06:50:48;10.36;85.61
68943;DHT22;60852;52.190;4.422;2022-12-26T06:53:13;10.38;85.62
68943;DHT22;60852;52.190;4.422;2022-12-26T06:55:38;10.34;85.62
68943;DHT22;60852;52.190;4.422;2022-12-26T06:58:04;10.36;85.54
68943;DHT22;60852;52.190;4.422;2022-12-26T07:00:29;10.38;85.49
68943;DHT22;60852;52.190;4.422;2022-12-26T07:02:55;10.37;85.55
68943;DHT22;60852;52.190;4.422;2022-12-26T07:05:20;10.51;85.38
68943;DHT22;60852;52.190;4.422;2022-12-26T07:07:50;10.50;85.40
68943;DHT22;60852;52.190;4.422;2022-12-26T07:10:17;10.54;85.42
68943;DHT22;60852;52.190;4.422;2022-12-26T07:12:43;10.48;85.51
68943;DHT22;60852;52.190;4.422;2022-12-26T07:15:09;10.44;85.61
68943;DHT22;60852;52.190;4.422;2022-12-26T07:17:35;10.52;85.45
68943;DHT22;60852;52.190;4.422;2022-12-26T07:20:02;10.51;85.48
68943;DHT22;60852;52.190;4.422;2022-12-26T07:22:28;10.47;85.51
68943;DHT22;60852;52.190;4.422;2022-12-26T07:24:53;10.65;85.14
68943;DHT22;60852;52.190;4.422;2022-12-26T07:27:19;10.69;85.07
68943;DHT22;60852;52.190;4.422;2022-12-26T07:29:45;10.61;85.02
68943;DHT22;60852;52.190;4.422;2022-12-26T07:32:11;10.60;85.10
68943;DHT22;60852;52.190;4.422;2022-12-26T07:34:36;10.69;84.86
68943;DHT22;60852;52.190;4.422;2022-12-26T07:37:02;10.73;84.67
68943;DHT22;60852;52.190;4.422;2022-12-26T07:39:27;10.72;84.67
68943;DHT22;60852;52.190;4.422;2022-12-26T07:41:53;10.72;84.79
68943;DHT22;60852;52.190;4.422;2022-12-26T07:44:21;10.76;85.14
68943;DHT22;60852;52.190;4.422;2022-12-26T07:46:47;10.67;85.99
68943;DHT22;60852;52.190;4.422;2022-12-26T07:49:13;10.64;86.60
68943;DHT22;60852;52.190;4.422;2022-12-26T07:51:40;10.64;86.94
68943;DHT22;60852;52.190;4.422;2022-12-26T07:54:05;10.42;87.44
68943;DHT22;60852;52.190;4.422;2022-12-26T07:56:31;10.37;87.86
68943;DHT22;60852;52.190;4.422;2022-12-26T07:58:57;10.30;87.77
68943;DHT22;60852;52.190;4.422;2022-12-26T08:01:23;10.30;87.73
68943;DHT22;60852;52.190;4.422;2022-12-26T08:03:49;10.24;87.52
68943;DHT22;60852;52.190;4.422;2022-12-26T08:06:16;10.21;87.50
68943;DHT22;60852;52.190;4.422;2022-12-26T08:08:42;10.16;87.31
68943;DHT22;60852;52.190;4.422;2022-12-26T08:11:16;10.12;87.45
68943;DHT22;60852;52.190;4.422;2022-12-26T08:13:42;10.18;87.49
68943;DHT22;60852;52.190;4.422;2022-12-26T08:16:09;10.13;87.31
68943;DHT22;60852;52.190;4.422;2022-12-26T08:18:35;10.07;87.03
68943;DHT22;60852;52.190;4.422;2022-12-26T08:21:01;10.07;86.81
68943;DHT22;60852;52.190;4.422;2022-12-26T08:23:26;10.04;85.94
68943;DHT22;60852;52.190;4.422;2022-12-26T08:25:52;9.99;85.97
68943;DHT22;60852;52.190;4.422;2022-12-26T08:28:18;9.99;85.97
68943;DHT22;60852;52.190;4.422;2022-12-26T08:30:43;9.99;86.06
68943;DHT22;60852;52.190;4.422;2022-12-26T08:33:10;9.92;85.15
68943;DHT22;60852;52.190;4.422;2022-12-26T08:35:37;9.58;84.54
68943;DHT22;60852;52.190;4.422;2022-12-26T08:38:03;9.49;84.94
68943;DHT22;60852;52.190;4.422;2022-12-26T08:40:29;9.39;84.56
68943;DHT22;60852;52.190;4.422;2022-12-26T08:42:55;9.36;83.67
68943;DHT22;60852;52.190;4.422;2022-12-26T08:45:20;9.24;82.93
68943;DHT22;60852;52.190;4.422;2022-12-26T08:47:46;9.11;83.65
68943;DHT22;60852;52.190;4.422;2022-12-26T08:50:11;9.28;83.61
68943;DHT22;60852;52.190;4.422;2022-12-26T08:52:37;9.30;83.44
68943;DHT22;60852;52.190;4.422;2022-12-26T08:55:02;9.18;82.40
68943;DHT22;60852;52.190;4.422;2022-12-26T08:57:28;9.18;82.26
68943;DHT22;60852;52.190;4.422;2022-12-26T08:59:54;9.03;81.94
68943;DHT22;60852;52.190;4.422;2022-12-26T09:02:19;8.96;81.56
68943;DHT22;60852;52.190;4.422;2022-12-26T09:04:45;8.88;81.42
68943;DHT22;60852;52.190;4.422;2022-12-26T09:07:10;8.83;80.58
68943;DHT22;60852;52.190;4.422;2022-12-26T09:09:36;8.84;80.28
68943;DHT22;60852;52.190;4.422;2022-12-26T09:12:02;8.77;81.35
68943;DHT22;60852;52.190;4.422;2022-12-26T09:14:27;8.79;80.77
68943;DHT22;60852;52.190;4.422;2022-12-26T09:16:53;8.70;80.04
68943;DHT22;60852;52.190;4.422;2022-12-26T09:19:19;8.53;80.07
68943;DHT22;60852;52.190;4.422;2022-12-26T09:21:46;8.55;78.65
68943;DHT22;60852;52.190;4.422;2022-12-26T09:24:15;8.56;78.55
68943;DHT22;60852;52.190;4.422;2022-12-26T09:26:41;8.56;78.59
68943;DHT22;60852;52.190;4.422;2022-12-26T09:29:10;8.25;79.71
68943;DHT22;60852;52.190;4.422;2022-12-26T09:31:35;8.39;80.47
68943;DHT22;60852;52.190;4.422;2022-12-26T09:34:06;8.45;80.31
68943;DHT22;60852;52.190;4.422;2022-12-26T09:36:34;8.36;80.46
68943;DHT22;60852;52.190;4.422;2022-12-26T09:39:02;8.39;78.07
68943;DHT22;60852;52.190;4.422;2022-12-26T09:42:02;8.41;78.94
68943;DHT22;60852;52.190;4.422;2022-12-26T09:44:39;8.49;79.05
68943;DHT22;60852;52.190;4.422;2022-12-26T09:53:04;8.53;77.37
68943;DHT22;60852;52.190;4.422;2022-12-26T09:55:55;8.53;77.47
68943;DHT22;60852;52.190;4.422;2022-12-26T09:58:34;8.57;76.39
68943;DHT22;60852;52.190;4.422;2022-12-26T10:03:43;8.62;76.20
68943;DHT22;60852;52.190;4.422;2022-12-26T10:14:31;8.52;74.26
68943;DHT22;60852;52.190;4.422;2022-12-26T10:17:43;8.62;75.22
68943;DHT22;60852;52.190;4.422;2022-12-26T10:20:40;8.76;75.47
68943;DHT22;60852;52.190;4.422;2022-12-26T10:31:55;8.83;74.78
68943;DHT22;60852;52.190;4.422;2022-12-26T10:34:32;8.70;75.98
68943;DHT22;60852;52.190;4.422;2022-12-26T10:37:20;8.81;74.29
68943;DHT22;60852;52.190;4.422;2022-12-26T10:42:45;8.84;73.37
68943;DHT22;60852;52.190;4.422;2022-12-26T10:47:46;8.87;71.64
68943;DHT22;60852;52.190;4.422;2022-12-26T10:50:26;8.64;71.67
68943;DHT22;60852;52.190;4.422;2022-12-26T10:52:52;8.57;71.24
68943;DHT22;60852;52.190;4.422;2022-12-26T10:55:25;8.49;70.74
68943;DHT22;60852;52.190;4.422;2022-12-26T10:57:53;8.63;71.07
68943;DHT22;60852;52.190;4.422;2022-12-26T11:00:25;8.64;71.72
68943;DHT22;60852;52.190;4.422;2022-12-26T11:03:12;8.56;71.43
68943;DHT22;60852;52.190;4.422;2022-12-26T11:05:50;8.63;70.98
68943;DHT22;60852;52.190;4.422;2022-12-26T11:14:28;8.97;67.99
68943;DHT22;60852;52.190;4.422;2022-12-26T11:16:58;9.20;68.54
68943;DHT22;60852;52.190;4.422;2022-12-26T11:19:30;9.34;69.03
68943;DHT22;60852;52.190;4.422;2022-12-26T11:25:10;9.27;67.53
68943;DHT22;60852;52.190;4.422;2022-12-26T11:27:57;9.20;67.72
68943;DHT22;60852;52.190;4.422;2022-12-26T11:30:36;9.14;69.25
68943;DHT22;60852;52.190;4.422;2022-12-26T11:35:48;8.90;67.99
68943;DHT22;60852;52.190;4.422;2022-12-26T11:38:18;8.99;66.33
68943;DHT22;60852;52.190;4.422;2022-12-26T11:41:03;8.84;66.58
68943;DHT22;60852;52.190;4.422;2022-12-26T11:43:50;8.79;66.21
68943;DHT22;60852;52.190;4.422;2022-12-26T11:46:17;8.76;66.96
68943;DHT22;60852;52.190;4.422;2022-12-26T11:48:48;8.74;65.70
68943;DHT22;60852;52.190;4.422;2022-12-26T11:51:14;8.76;64.44
68943;DHT22;60852;52.190;4.422;2022-12-26T11:53:40;8.73;63.66
68943;DHT22;60852;52.190;4.422;2022-12-26T11:56:06;8.67;63.71
68943;DHT22;60852;52.190;4.422;2022-12-26T11:58:34;8.73;65.05
68943;DHT22;60852;52.190;4.422;2022-12-26T12:03:45;8.59;65.82
68943;DHT22;60852;52.190;4.422;2022-12-26T12:09:43;8.63;68.32
68943;DHT22;60852;52.190;4.422;2022-12-26T12:12:17;8.60;70.59
68943;DHT22;60852;52.190;4.422;2022-12-26T12:15:17;8.66;71.33
68943;DHT22;60852;52.190;4.422;2022-12-26T12:18:10;8.72;71.04
68943;DHT22;60852;52.190;4.422;2022-12-26T12:21:05;8.76;70.07
68943;DHT22;60852;52.190;4.422;2022-12-26T12:26:35;8.76;70.97
68943;DHT22;60852;52.190;4.422;2022-12-26T12:30:00;8.76;70.20
68943;DHT22;60852;52.190;4.422;2022-12-26T12:34:51;8.49;70.10
68943;DHT22;60852;52.190;4.422;2022-12-26T12:40:31;8.55;67.88
68943;DHT22;60852;52.190;4.422;2022-12-26T12:43:10;8.76;67.91
68943;DHT22;60852;52.190;4.422;2022-12-26T12:49:17;8.62;64.99
68943;DHT22;60852;52.190;4.422;2022-12-26T12:54:59;8.91;65.83
68943;DHT22;60852;52.190;4.422;2022-12-26T12:57:42;9.00;65.99
68943;DHT22;60852;52.190;4.422;2022-12-26T13:00:16;8.99;65.08
68943;DHT22;60852;52.190;4.422;2022-12-26T13:02:48;8.99;64.73
68943;DHT22;60852;52.190;4.422;2022-12-26T13:07:58;8.93;65.20
68943;DHT22;60852;52.190;4.422;2022-12-26T13:10:44;8.85;66.96
68943;DHT22;60852;52.190;4.422;2022-12-26T13:16:14;9.01;65.87
68943;DHT22;60852;52.190;4.422;2022-12-26T13:18:50;9.01;65.72
68943;DHT22;60852;52.190;4.422;2022-12-26T13:21:17;8.91;66.15
68943;DHT22;60852;52.190;4.422;2022-12-26T13:23:53;8.90;65.82
68943;DHT22;60852;52.190;4.422;2022-12-26T13:26:47;9.01;66.38
68943;DHT22;60852;52.190;4.422;2022-12-26T13:31:58;8.83;65.27
68943;DHT22;60852;52.190;4.422;2022-12-26T13:34:25;8.85;64.68
68943;DHT22;60852;52.190;4.422;2022-12-26T13:36:53;8.83;65.04
68943;DHT22;60852;52.190;4.422;2022-12-26T13:41:54;8.63;64.51
68943;DHT22;60852;52.190;4.422;2022-12-26T13:44:39;8.66;64.63
68943;DHT22;60852;52.190;4.422;2022-12-26T13:47:32;8.62;63.94
68943;DHT22;60852;52.190;4.422;2022-12-26T13:53:02;8.69;64.69
68943;DHT22;60852;52.190;4.422;2022-12-26T13:55:41;8.64;64.27
68943;DHT22;60852;52.190;4.422;2022-12-26T14:01:30;8.49;64.55
68943;DHT22;60852;52.190;4.422;2022-12-26T14:04:44;8.59;65.23
68943;DHT22;60852;52.190;4.422;2022-12-26T14:10:14;8.49;65.34
68943;DHT22;60852;52.190;4.422;2022-12-26T14:12:50;8.36;65.04
68943;DHT22;60852;52.190;4.422;2022-12-26T14:15:31;8.21;65.56
68943;DHT22;60852;52.190;4.422;2022-12-26T14:23:46;8.21;65.85
68943;DHT22;60852;52.190;4.422;2022-12-26T14:26:20;8.20;66.35
68943;DHT22;60852;52.190;4.422;2022-12-26T14:34:25;8.25;66.13
68943;DHT22;60852;52.190;4.422;2022-12-26T14:37:26;8.28;66.80
68943;DHT22;60852;52.190;4.422;2022-12-26T14:40:36;8.28;67.19
68943;DHT22;60852;52.190;4.422;2022-12-26T14:43:11;8.31;66.98
68943;DHT22;60852;52.190;4.422;2022-12-26T15:18:23;8.46;67.41
68943;DHT22;60852;52.190;4.422;2022-12-26T15:35:16;8.34;65.84
68943;DHT22;60852;52.190;4.422;2022-12-26T15:38:12;8.38;66.23
68943;DHT22;60852;52.190;4.422;2022-12-26T15:40:53;8.32;66.73
68943;DHT22;60852;52.190;4.422;2022-12-26T15:46:19;8.32;66.40
68943;DHT22;60852;52.190;4.422;2022-12-26T15:54:56;8.34;65.87
68943;DHT22;60852;52.190;4.422;2022-12-26T15:57:36;8.25;65.55
68943;DHT22;60852;52.190;4.422;2022-12-26T16:00:20;8.25;65.07
68943;DHT22;60852;52.190;4.422;2022-12-26T16:03:00;8.32;65.69
68943;DHT22;60852;52.190;4.422;2022-12-26T16:16:50;8.25;63.91
68943;DHT22;60852;52.190;4.422;2022-12-26T16:19:19;8.31;64.49
68943;DHT22;60852;52.190;4.422;2022-12-26T16:21:53;8.38;65.11
68943;DHT22;60852;52.190;4.422;2022-12-26T16:24:40;8.41;65.75
68943;DHT22;60852;52.190;4.422;2022-12-26T16:27:11;8.42;65.28
68943;DHT22;60852;52.190;4.422;2022-12-26T16:29:45;8.45;64.68
68943;DHT22;60852;52.190;4.422;2022-12-26T16:32:17;8.46;64.86
68943;DHT22;60852;52.190;4.422;2022-12-26T16:34:45;8.43;63.31
68943;DHT22;60852;52.190;4.422;2022-12-26T16:37:29;8.42;63.18
68943;DHT22;60852;52.190;4.422;2022-12-26T16:42:31;8.41;62.93
68943;DHT22;60852;52.190;4.422;2022-12-26T16:44:58;8.46;63.01
68943;DHT22;60852;52.190;4.422;2022-12-26T16:47:25;8.50;62.09
68943;DHT22;60852;52.190;4.422;2022-12-26T16:49:53;8.59;61.55
68943;DHT22;60852;52.190;4.422;2022-12-26T16:52:37;8.62;62.59
68943;DHT22;60852;52.190;4.422;2022-12-26T16:57:49;8.59;60.98
68943;DHT22;60852;52.190;4.422;2022-12-26T17:00:17;8.57;60.37
68943;DHT22;60852;52.190;4.422;2022-12-26T17:02:47;8.50;60.45
68943;DHT22;60852;52.190;4.422;2022-12-26T17:05:23;8.46;60.12
68943;DHT22;60852;52.190;4.422;2022-12-26T17:07:52;8.42;60.37
68943;DHT22;60852;52.190;4.422;2022-12-26T17:12:47;8.35;59.87
68943;DHT22;60852;52.190;4.422;2022-12-26T17:15:26;8.39;60.87
68943;DHT22;60852;52.190;4.422;2022-12-26T17:17:52;8.42;60.30
68943;DHT22;60852;52.190;4.422;2022-12-26T17:22:49;8.34;59.41
68943;DHT22;60852;52.190;4.422;2022-12-26T17:25:29;8.38;58.85
68943;DHT22;60852;52.190;4.422;2022-12-26T17:30:37;8.36;59.26
68943;DHT22;60852;52.190;4.422;2022-12-26T17:35:35;8.39;60.83
68943;DHT22;60852;52.190;4.422;2022-12-26T17:38:26;8.39;60.57
68943;DHT22;60852;52.190;4.422;2022-12-26T17:40:56;8.32;60.16
68943;DHT22;60852;52.190;4.422;2022-12-26T17:43:28;8.31;60.36
68943;DHT22;60852;52.190;4.422;2022-12-26T17:45:54;8.28;59.34
68943;DHT22;60852;52.190;4.422;2022-12-26T17:48:20;8.36;59.74
68943;DHT22;60852;52.190;4.422;2022-12-26T17:50:48;8.38;60.00
68943;DHT22;60852;52.190;4.422;2022-12-26T17:53:29;8.35;58.96
68943;DHT22;60852;52.190;4.422;2022-12-26T17:55:58;8.32;59.72
68943;DHT22;60852;52.190;4.422;2022-12-26T17:58:26;8.24;60.19
68943;DHT22;60852;52.190;4.422;2022-12-26T18:00:53;8.28;59.89
68943;DHT22;60852;52.190;4.422;2022-12-26T18:03:19;8.29;60.63
68943;DHT22;60852;52.190;4.422;2022-12-26T18:05:45;8.31;60.23
68943;DHT22;60852;52.190;4.422;2022-12-26T18:10:49;8.35;62.16
68943;DHT22;60852;52.190;4.422;2022-12-26T18:13:15;8.28;60.86
68943;DHT22;60852;52.190;4.422;2022-12-26T18:15:41;8.28;60.85
68943;DHT22;60852;52.190;4.422;2022-12-26T18:18:34;8.24;59.89
68943;DHT22;60852;52.190;4.422;2022-12-26T18:21:01;8.29;59.82
68943;DHT22;60852;52.190;4.422;2022-12-26T18:23:27;8.31;59.90
68943;DHT22;60852;52.190;4.422;2022-12-26T18:25:54;8.36;61.79
68943;DHT22;60852;52.190;4.422;2022-12-26T18:28:21;8.35;61.95
68943;DHT22;60852;52.190;4.422;2022-12-26T18:30:47;8.42;60.77
68943;DHT22;60852;52.190;4.422;2022-12-26T18:33:12;8.46;61.21
68943;DHT22;60852;52.190;4.422;2022-12-26T18:35:39;8.46;62.49
68943;DHT22;60852;52.190;4.422;2022-12-26T18:38:05;8.49;62.37
68943;DHT22;60852;52.190;4.422;2022-12-26T18:40:51;8.48;62.96
68943;DHT22;60852;52.190;4.422;2022-12-26T18:43:21;8.49;63.19
68943;DHT22;60852;52.190;4.422;2022-12-26T18:45:47;8.50;64.01
68943;DHT22;60852;52.190;4.422;2022-12-26T18:48:14;8.57;64.26
68943;DHT22;60852;52.190;4.422;2022-12-26T18:50:41;8.60;62.71
68943;DHT22;60852;52.190;4.422;2022-12-26T18:53:07;8.56;61.63
68943;DHT22;60852;52.190;4.422;2022-12-26T18:55:32;8.57;60.41
68943;DHT22;60852;52.190;4.422;2022-12-26T18:57:58;8.60;61.22
68943;DHT22;60852;52.190;4.422;2022-12-26T19:00:24;8.56;62.48
68943;DHT22;60852;52.190;4.422;2022-12-26T19:02:50;8.59;62.43
68943;DHT22;60852;52.190;4.422;2022-12-26T19:05:18;8.59;63.04
68943;DHT22;60852;52.190;4.422;2022-12-26T19:07:44;8.57;63.49
68943;DHT22;60852;52.190;4.422;2022-12-26T19:10:14;8.62;64.29
68943;DHT22;60852;52.190;4.422;2022-12-26T19:12:41;8.57;62.77
68943;DHT22;60852;52.190;4.422;2022-12-26T19:15:08;8.63;62.11
68943;DHT22;60852;52.190;4.422;2022-12-26T19:17:34;8.66;63.59
68943;DHT22;60852;52.190;4.422;2022-12-26T19:19:59;8.64;63.48
68943;DHT22;60852;52.190;4.422;2022-12-26T19:22:25;8.66;63.03
68943;DHT22;60852;52.190;4.422;2022-12-26T19:24:50;8.69;62.71
68943;DHT22;60852;52.190;4.422;2022-12-26T19:27:17;8.79;64.24
68943;DHT22;60852;52.190;4.422;2022-12-26T19:29:43;8.77;64.03
68943;DHT22;60852;52.190;4.422;2022-12-26T19:32:08;8.76;64.09
68943;DHT22;60852;52.190;4.422;2022-12-26T19:34:34;8.70;64.71
68943;DHT22;60852;52.190;4.422;2022-12-26T19:36:59;8.76;64.75
68943;DHT22;60852;52.190;4.422;2022-12-26T19:39:25;8.76;65.33
68943;DHT22;60852;52.190;4.422;2022-12-26T19:41:50;8.74;65.55
68943;DHT22;60852;52.190;4.422;2022-12-26T19:44:16;8.73;64.63
68943;DHT22;60852;52.190;4.422;2022-12-26T19:46:41;8.76;64.65
68943;DHT22;60852;52.190;4.422;2022-12-26T19:49:07;8.70;65.34
68943;DHT22;60852;52.190;4.422;2022-12-26T19:51:32;8.69;64.53